Terminal Aerodrome Forecast
Issued by NWS Caribou, ME

Home | Current Version | Previous Version | Text Only | Print | Product List | Glossary On
Versions: 1 2 3 4 5 6 7 8 9 10 11 12
629
FTUS41 KCAR 241727
TAFBGR
TAF
KBGR 241727Z 2418/2518 22010KT P6SM SCT080
     FM242000 21009G15KT P6SM SCT150=

USA.gov is the U.S. government's official web portal to all federal, state and local government web resources and services.